sensor_id;sensor_type;location;lat;lon;timestamp;P1;durP1;ratioP1;P2;durP2;ratioP2
47519;SDS011;33252;48.122;11.538;2023-11-18T00:00:15;13.95;;;7.30;;
47519;SDS011;33252;48.122;11.538;2023-11-18T00:02:42;11.57;;;7.15;;
47519;SDS011;33252;48.122;11.538;2023-11-18T00:05:08;9.90;;;5.68;;
47519;SDS011;33252;48.122;11.538;2023-11-18T00:07:34;8.85;;;6.30;;
47519;SDS011;33252;48.122;11.538;2023-11-18T00:10:00;9.90;;;6.15;;
47519;SDS011;33252;48.122;11.538;2023-11-18T00:12:26;10.20;;;6.30;;
47519;SDS011;33252;48.122;11.538;2023-11-18T00:14:52;9.07;;;6.45;;
47519;SDS011;33252;48.122;11.538;2023-11-18T00:17:17;10.23;;;6.55;;
47519;SDS011;33252;48.122;11.538;2023-11-18T00:19:45;9.23;;;6.43;;
47519;SDS011;33252;48.122;11.538;2023-11-18T00:22:10;8.95;;;5.07;;
47519;SDS011;33252;48.122;11.538;2023-11-18T00:24:36;8.52;;;5.38;;
47519;SDS011;33252;48.122;11.538;2023-11-18T00:27:03;8.23;;;5.57;;
47519;SDS011;33252;48.122;11.538;2023-11-18T00:29:34;9.18;;;6.07;;
47519;SDS011;33252;48.122;11.538;2023-11-18T00:32:00;14.43;;;8.57;;
47519;SDS011;33252;48.122;11.538;2023-11-18T00:34:27;9.10;;;5.68;;
47519;SDS011;33252;48.122;11.538;2023-11-18T00:36:54;8.05;;;4.82;;
47519;SDS011;33252;48.122;11.538;2023-11-18T00:39:22;10.15;;;5.80;;
47519;SDS011;33252;48.122;11.538;2023-11-18T00:41:48;11.55;;;7.00;;
47519;SDS011;33252;48.122;11.538;2023-11-18T00:44:13;8.40;;;5.68;;
47519;SDS011;33252;48.122;11.538;2023-11-18T00:46:39;8.40;;;5.22;;
47519;SDS011;33252;48.122;11.538;2023-11-18T00:49:05;7.20;;;4.22;;
47519;SDS011;33252;48.122;11.538;2023-11-18T00:51:31;6.55;;;4.13;;
47519;SDS011;33252;48.122;11.538;2023-11-18T00:53:56;6.63;;;4.28;;
47519;SDS011;33252;48.122;11.538;2023-11-18T00:56:22;6.00;;;4.05;;
47519;SDS011;33252;48.122;11.538;2023-11-18T00:58:48;6.13;;;3.80;;
47519;SDS011;33252;48.122;11.538;2023-11-18T01:01:14;5.65;;;3.45;;
47519;SDS011;33252;48.122;11.538;2023-11-18T01:03:43;8.40;;;4.22;;
47519;SDS011;33252;48.122;11.538;2023-11-18T01:06:12;4.60;;;2.85;;
47519;SDS011;33252;48.122;11.538;2023-11-18T01:08:38;6.15;;;3.35;;
47519;SDS011;33252;48.122;11.538;2023-11-18T01:11:03;2.72;;;2.05;;
47519;SDS011;33252;48.122;11.538;2023-11-18T01:13:30;4.25;;;2.83;;
47519;SDS011;33252;48.122;11.538;2023-11-18T01:15:56;4.32;;;2.45;;
47519;SDS011;33252;48.122;11.538;2023-11-18T01:18:22;4.22;;;2.25;;
47519;SDS011;33252;48.122;11.538;2023-11-18T01:20:48;3.55;;;2.45;;
47519;SDS011;33252;48.122;11.538;2023-11-18T01:23:14;2.83;;;1.88;;
47519;SDS011;33252;48.122;11.538;2023-11-18T01:25:40;2.67;;;1.50;;
47519;SDS011;33252;48.122;11.538;2023-11-18T01:28:05;2.95;;;1.92;;
47519;SDS011;33252;48.122;11.538;2023-11-18T01:30:31;3.03;;;1.75;;
47519;SDS011;33252;48.122;11.538;2023-11-18T01:32:57;3.60;;;2.00;;
47519;SDS011;33252;48.122;11.538;2023-11-18T01:35:26;3.80;;;2.00;;
47519;SDS011;33252;48.122;11.538;2023-11-18T01:37:52;2.05;;;1.42;;
47519;SDS011;33252;48.122;11.538;2023-11-18T01:40:17;4.20;;;2.17;;
47519;SDS011;33252;48.122;11.538;2023-11-18T01:42:44;3.42;;;1.88;;
47519;SDS011;33252;48.122;11.538;2023-11-18T01:45:11;3.00;;;1.95;;
47519;SDS011;33252;48.122;11.538;2023-11-18T01:47:46;2.13;;;1.83;;
47519;SDS011;33252;48.122;11.538;2023-11-18T01:50:13;3.20;;;2.33;;
47519;SDS011;33252;48.122;11.538;2023-11-18T01:52:42;2.20;;;1.67;;
47519;SDS011;33252;48.122;11.538;2023-11-18T01:55:09;5.88;;;2.00;;
47519;SDS011;33252;48.122;11.538;2023-11-18T01:57:35;3.30;;;1.83;;
47519;SDS011;33252;48.122;11.538;2023-11-18T02:00:02;4.45;;;2.40;;
47519;SDS011;33252;48.122;11.538;2023-11-18T02:02:32;3.10;;;2.13;;
47519;SDS011;33252;48.122;11.538;2023-11-18T02:05:00;3.22;;;2.08;;
47519;SDS011;33252;48.122;11.538;2023-11-18T02:07:31;5.10;;;2.17;;
47519;SDS011;33252;48.122;11.538;2023-11-18T02:09:58;3.75;;;2.17;;
47519;SDS011;33252;48.122;11.538;2023-11-18T02:14:50;3.50;;;2.22;;
47519;SDS011;33252;48.122;11.538;2023-11-18T02:17:21;3.38;;;2.05;;
47519;SDS011;33252;48.122;11.538;2023-11-18T02:19:52;3.45;;;2.20;;
47519;SDS011;33252;48.122;11.538;2023-11-18T02:22:20;3.00;;;2.22;;
47519;SDS011;33252;48.122;11.538;2023-11-18T02:24:46;3.60;;;2.45;;
47519;SDS011;33252;48.122;11.538;2023-11-18T02:27:12;4.93;;;2.53;;
47519;SDS011;33252;48.122;11.538;2023-11-18T02:29:39;4.25;;;2.67;;
47519;SDS011;33252;48.122;11.538;2023-11-18T02:32:27;4.82;;;2.80;;
47519;SDS011;33252;48.122;11.538;2023-11-18T02:35:13;4.07;;;2.58;;
47519;SDS011;33252;48.122;11.538;2023-11-18T02:37:47;2.80;;;1.90;;
47519;SDS011;33252;48.122;11.538;2023-11-18T02:40:18;4.10;;;2.58;;
47519;SDS011;33252;48.122;11.538;2023-11-18T02:42:45;3.22;;;1.80;;
47519;SDS011;33252;48.122;11.538;2023-11-18T02:45:13;3.38;;;2.50;;
47519;SDS011;33252;48.122;11.538;2023-11-18T02:47:46;4.30;;;2.70;;
47519;SDS011;33252;48.122;11.538;2023-11-18T02:50:12;3.17;;;2.13;;
47519;SDS011;33252;48.122;11.538;2023-11-18T02:52:38;3.42;;;2.28;;
47519;SDS011;33252;48.122;11.538;2023-11-18T02:55:05;3.85;;;2.22;;
47519;SDS011;33252;48.122;11.538;2023-11-18T02:57:36;4.45;;;2.15;;
47519;SDS011;33252;48.122;11.538;2023-11-18T03:00:03;3.75;;;2.15;;
47519;SDS011;33252;48.122;11.538;2023-11-18T03:02:30;3.80;;;2.42;;
47519;SDS011;33252;48.122;11.538;2023-11-18T03:04:59;3.97;;;2.55;;
47519;SDS011;33252;48.122;11.538;2023-11-18T03:07:25;3.90;;;2.80;;
47519;SDS011;33252;48.122;11.538;2023-11-18T03:09:52;3.65;;;2.50;;
47519;SDS011;33252;48.122;11.538;2023-11-18T03:12:21;3.63;;;2.08;;
47519;SDS011;33252;48.122;11.538;2023-11-18T03:14:46;3.25;;;2.40;;
47519;SDS011;33252;48.122;11.538;2023-11-18T03:17:12;2.97;;;2.25;;
47519;SDS011;33252;48.122;11.538;2023-11-18T03:19:38;3.85;;;2.63;;
47519;SDS011;33252;48.122;11.538;2023-11-18T03:22:04;4.35;;;2.95;;
47519;SDS011;33252;48.122;11.538;2023-11-18T03:24:30;4.68;;;2.85;;
47519;SDS011;33252;48.122;11.538;2023-11-18T03:26:55;4.50;;;3.08;;
47519;SDS011;33252;48.122;11.538;2023-11-18T03:29:21;2.95;;;1.90;;
47519;SDS011;33252;48.122;11.538;2023-11-18T03:31:48;4.95;;;2.63;;
47519;SDS011;33252;48.122;11.538;2023-11-18T03:34:15;4.55;;;3.25;;
47519;SDS011;33252;48.122;11.538;2023-11-18T03:36:41;6.00;;;2.40;;
47519;SDS011;33252;48.122;11.538;2023-11-18T03:39:06;3.38;;;2.05;;
47519;SDS011;33252;48.122;11.538;2023-11-18T03:41:32;3.60;;;2.33;;
47519;SDS011;33252;48.122;11.538;2023-11-18T03:43:57;3.47;;;2.45;;
47519;SDS011;33252;48.122;11.538;2023-11-18T03:46:23;4.50;;;2.97;;
47519;SDS011;33252;48.122;11.538;2023-11-18T03:48:48;3.90;;;2.80;;
47519;SDS011;33252;48.122;11.538;2023-11-18T03:51:14;3.95;;;2.53;;
47519;SDS011;33252;48.122;11.538;2023-11-18T03:53:42;4.00;;;2.85;;
47519;SDS011;33252;48.122;11.538;2023-11-18T03:56:08;4.25;;;2.85;;
47519;SDS011;33252;48.122;11.538;2023-11-18T03:58:34;4.70;;;2.97;;
47519;SDS011;33252;48.122;11.538;2023-11-18T04:01:00;5.43;;;3.20;;
47519;SDS011;33252;48.122;11.538;2023-11-18T04:03:26;5.97;;;3.17;;
47519;SDS011;33252;48.122;11.538;2023-11-18T04:05:52;5.05;;;3.00;;
47519;SDS011;33252;48.122;11.538;2023-11-18T04:08:17;4.45;;;3.10;;
47519;SDS011;33252;48.122;11.538;2023-11-18T04:10:43;5.25;;;3.53;;
47519;SDS011;33252;48.122;11.538;2023-11-18T04:13:09;7.65;;;4.13;;
47519;SDS011;33252;48.122;11.538;2023-11-18T04:15:34;5.45;;;3.72;;
47519;SDS011;33252;48.122;11.538;2023-11-18T04:18:00;8.02;;;3.83;;
47519;SDS011;33252;48.122;11.538;2023-11-18T04:20:26;6.60;;;3.65;;
47519;SDS011;33252;48.122;11.538;2023-11-18T04:22:52;7.07;;;4.03;;
47519;SDS011;33252;48.122;11.538;2023-11-18T04:25:18;7.07;;;4.18;;
47519;SDS011;33252;48.122;11.538;2023-11-18T04:27:43;5.75;;;3.60;;
47519;SDS011;33252;48.122;11.538;2023-11-18T04:30:09;5.35;;;3.22;;
47519;SDS011;33252;48.122;11.538;2023-11-18T04:32:35;6.47;;;3.70;;
47519;SDS011;33252;48.122;11.538;2023-11-18T04:35:00;5.80;;;3.70;;
47519;SDS011;33252;48.122;11.538;2023-11-18T04:37:33;7.05;;;4.47;;
47519;SDS011;33252;48.122;11.538;2023-11-18T04:39:59;10.07;;;4.70;;
47519;SDS011;33252;48.122;11.538;2023-11-18T04:42:25;5.72;;;3.25;;
47519;SDS011;33252;48.122;11.538;2023-11-18T04:44:51;6.40;;;4.82;;
47519;SDS011;33252;48.122;11.538;2023-11-18T04:47:17;7.22;;;4.13;;
47519;SDS011;33252;48.122;11.538;2023-11-18T04:49:43;6.05;;;3.63;;
47519;SDS011;33252;48.122;11.538;2023-11-18T04:52:09;7.00;;;4.10;;
47519;SDS011;33252;48.122;11.538;2023-11-18T04:54:35;5.38;;;3.20;;
47519;SDS011;33252;48.122;11.538;2023-11-18T04:57:00;5.63;;;3.53;;
47519;SDS011;33252;48.122;11.538;2023-11-18T04:59:26;5.60;;;3.50;;
47519;SDS011;33252;48.122;11.538;2023-11-18T05:01:52;4.90;;;3.28;;
47519;SDS011;33252;48.122;11.538;2023-11-18T05:04:18;5.80;;;3.30;;
47519;SDS011;33252;48.122;11.538;2023-11-18T05:06:44;5.40;;;3.38;;
47519;SDS011;33252;48.122;11.538;2023-11-18T05:09:09;5.40;;;3.50;;
47519;SDS011;33252;48.122;11.538;2023-11-18T05:11:35;7.43;;;3.83;;
47519;SDS011;33252;48.122;11.538;2023-11-18T05:14:01;4.15;;;3.10;;
47519;SDS011;33252;48.122;11.538;2023-11-18T05:16:28;5.68;;;3.33;;
47519;SDS011;33252;48.122;11.538;2023-11-18T05:18:54;5.47;;;3.25;;
47519;SDS011;33252;48.122;11.538;2023-11-18T05:21:20;5.60;;;3.50;;
47519;SDS011;33252;48.122;11.538;2023-11-18T05:23:46;5.95;;;3.85;;
47519;SDS011;33252;48.122;11.538;2023-11-18T05:26:12;6.57;;;3.78;;
47519;SDS011;33252;48.122;11.538;2023-11-18T05:28:39;7.13;;;3.30;;
47519;SDS011;33252;48.122;11.538;2023-11-18T05:31:04;6.13;;;4.25;;
47519;SDS011;33252;48.122;11.538;2023-11-18T05:33:31;7.63;;;4.07;;
47519;SDS011;33252;48.122;11.538;2023-11-18T05:35:59;8.13;;;4.07;;
47519;SDS011;33252;48.122;11.538;2023-11-18T05:38:24;6.63;;;4.18;;
47519;SDS011;33252;48.122;11.538;2023-11-18T05:40:52;7.70;;;4.25;;
47519;SDS011;33252;48.122;11.538;2023-11-18T05:43:25;5.90;;;4.25;;
47519;SDS011;33252;48.122;11.538;2023-11-18T05:45:54;5.50;;;4.13;;
47519;SDS011;33252;48.122;11.538;2023-11-18T05:48:42;6.07;;;3.72;;
47519;SDS011;33252;48.122;11.538;2023-11-18T05:51:09;6.25;;;3.70;;
47519;SDS011;33252;48.122;11.538;2023-11-18T05:53:39;7.25;;;4.18;;
47519;SDS011;33252;48.122;11.538;2023-11-18T05:56:06;5.65;;;3.53;;
47519;SDS011;33252;48.122;11.538;2023-11-18T05:58:32;8.32;;;3.55;;
47519;SDS011;33252;48.122;11.538;2023-11-18T06:00:58;4.15;;;3.13;;
47519;SDS011;33252;48.122;11.538;2023-11-18T06:03:23;6.88;;;3.20;;
47519;SDS011;33252;48.122;11.538;2023-11-18T06:05:49;6.13;;;3.58;;
47519;SDS011;33252;48.122;11.538;2023-11-18T06:08:16;6.20;;;3.50;;
47519;SDS011;33252;48.122;11.538;2023-11-18T06:10:41;5.32;;;3.10;;
47519;SDS011;33252;48.122;11.538;2023-11-18T06:13:09;6.72;;;3.33;;
47519;SDS011;33252;48.122;11.538;2023-11-18T06:15:37;4.93;;;2.90;;
47519;SDS011;33252;48.122;11.538;2023-11-18T06:18:03;8.15;;;3.38;;
47519;SDS011;33252;48.122;11.538;2023-11-18T06:20:30;4.07;;;2.67;;
47519;SDS011;33252;48.122;11.538;2023-11-18T06:22:55;4.60;;;2.92;;
47519;SDS011;33252;48.122;11.538;2023-11-18T06:25:22;5.05;;;2.95;;
47519;SDS011;33252;48.122;11.538;2023-11-18T06:27:50;5.75;;;3.28;;
47519;SDS011;33252;48.122;11.538;2023-11-18T06:30:17;5.85;;;3.67;;
47519;SDS011;33252;48.122;11.538;2023-11-18T06:32:44;5.38;;;3.10;;
47519;SDS011;33252;48.122;11.538;2023-11-18T06:35:12;4.63;;;3.33;;
47519;SDS011;33252;48.122;11.538;2023-11-18T06:37:39;4.35;;;2.95;;
47519;SDS011;33252;48.122;11.538;2023-11-18T06:40:05;5.43;;;3.00;;
47519;SDS011;33252;48.122;11.538;2023-11-18T06:42:41;3.72;;;2.55;;
47519;SDS011;33252;48.122;11.538;2023-11-18T06:45:07;5.25;;;3.17;;
47519;SDS011;33252;48.122;11.538;2023-11-18T06:47:34;5.22;;;3.65;;
47519;SDS011;33252;48.122;11.538;2023-11-18T06:50:01;5.95;;;3.00;;
47519;SDS011;33252;48.122;11.538;2023-11-18T06:52:27;7.40;;;3.67;;
47519;SDS011;33252;48.122;11.538;2023-11-18T06:54:53;4.88;;;2.97;;
47519;SDS011;33252;48.122;11.538;2023-11-18T06:57:19;4.57;;;2.92;;
47519;SDS011;33252;48.122;11.538;2023-11-18T06:59:46;7.43;;;3.78;;
47519;SDS011;33252;48.122;11.538;2023-11-18T07:02:12;4.45;;;2.70;;
47519;SDS011;33252;48.122;11.538;2023-11-18T07:04:38;7.18;;;3.15;;
47519;SDS011;33252;48.122;11.538;2023-11-18T07:07:04;4.63;;;3.35;;
47519;SDS011;33252;48.122;11.538;2023-11-18T07:09:29;5.25;;;3.05;;
47519;SDS011;33252;48.122;11.538;2023-11-18T07:12:00;5.47;;;3.17;;
47519;SDS011;33252;48.122;11.538;2023-11-18T07:14:28;5.53;;;3.20;;
47519;SDS011;33252;48.122;11.538;2023-11-18T07:16:54;4.22;;;2.85;;
47519;SDS011;33252;48.122;11.538;2023-11-18T07:19:20;4.45;;;2.95;;
47519;SDS011;33252;48.122;11.538;2023-11-18T07:21:49;5.90;;;3.50;;
47519;SDS011;33252;48.122;11.538;2023-11-18T07:24:15;5.20;;;3.33;;
47519;SDS011;33252;48.122;11.538;2023-11-18T07:26:42;6.88;;;4.22;;
47519;SDS011;33252;48.122;11.538;2023-11-18T07:29:08;4.32;;;2.63;;
47519;SDS011;33252;48.122;11.538;2023-11-18T07:31:34;7.03;;;3.95;;
47519;SDS011;33252;48.122;11.538;2023-11-18T07:34:05;5.97;;;3.08;;
47519;SDS011;33252;48.122;11.538;2023-11-18T07:36:31;5.28;;;2.95;;
47519;SDS011;33252;48.122;11.538;2023-11-18T07:39:00;6.38;;;3.35;;
47519;SDS011;33252;48.122;11.538;2023-11-18T07:41:27;6.72;;;3.65;;
47519;SDS011;33252;48.122;11.538;2023-11-18T07:43:53;4.68;;;2.92;;
47519;SDS011;33252;48.122;11.538;2023-11-18T07:46:21;6.50;;;3.17;;
47519;SDS011;33252;48.122;11.538;2023-11-18T07:48:50;4.32;;;2.45;;
47519;SDS011;33252;48.122;11.538;2023-11-18T07:51:20;8.20;;;3.55;;
47519;SDS011;33252;48.122;11.538;2023-11-18T07:53:49;6.43;;;3.30;;
47519;SDS011;33252;48.122;11.538;2023-11-18T07:56:15;8.55;;;3.67;;
47519;SDS011;33252;48.122;11.538;2023-11-18T07:58:42;5.18;;;3.40;;
47519;SDS011;33252;48.122;11.538;2023-11-18T08:01:10;5.15;;;3.30;;
47519;SDS011;33252;48.122;11.538;2023-11-18T08:03:36;5.10;;;3.25;;
47519;SDS011;33252;48.122;11.538;2023-11-18T08:06:03;4.90;;;3.25;;
47519;SDS011;33252;48.122;11.538;2023-11-18T08:08:31;4.75;;;3.17;;
47519;SDS011;33252;48.122;11.538;2023-11-18T08:11:02;8.43;;;4.07;;
47519;SDS011;33252;48.122;11.538;2023-11-18T08:13:32;6.28;;;4.03;;
47519;SDS011;33252;48.122;11.538;2023-11-18T08:15:57;4.43;;;3.17;;
47519;SDS011;33252;48.122;11.538;2023-11-18T08:18:23;6.13;;;3.42;;
47519;SDS011;33252;48.122;11.538;2023-11-18T08:20:49;6.35;;;3.40;;
47519;SDS011;33252;48.122;11.538;2023-11-18T08:23:15;4.50;;;2.70;;
47519;SDS011;33252;48.122;11.538;2023-11-18T08:25:41;4.68;;;2.88;;
47519;SDS011;33252;48.122;11.538;2023-11-18T08:28:06;5.85;;;3.22;;
47519;SDS011;33252;48.122;11.538;2023-11-18T08:30:33;5.15;;;3.10;;
47519;SDS011;33252;48.122;11.538;2023-11-18T08:33:02;4.03;;;2.83;;
47519;SDS011;33252;48.122;11.538;2023-11-18T08:35:34;4.22;;;2.45;;
47519;SDS011;33252;48.122;11.538;2023-11-18T08:38:00;5.18;;;2.35;;
47519;SDS011;33252;48.122;11.538;2023-11-18T08:40:26;5.07;;;2.65;;
47519;SDS011;33252;48.122;11.538;2023-11-18T08:42:52;4.40;;;2.88;;
47519;SDS011;33252;48.122;11.538;2023-11-18T08:45:22;4.30;;;2.53;;
47519;SDS011;33252;48.122;11.538;2023-11-18T08:47:55;4.20;;;2.85;;
47519;SDS011;33252;48.122;11.538;2023-11-18T08:50:22;4.03;;;2.42;;
47519;SDS011;33252;48.122;11.538;2023-11-18T08:52:51;5.07;;;2.78;;
47519;SDS011;33252;48.122;11.538;2023-11-18T08:55:22;3.78;;;1.92;;
47519;SDS011;33252;48.122;11.538;2023-11-18T08:58:04;4.68;;;2.65;;
47519;SDS011;33252;48.122;11.538;2023-11-18T09:00:53;6.38;;;1.58;;
47519;SDS011;33252;48.122;11.538;2023-11-18T09:03:26;2.25;;;1.80;;
47519;SDS011;33252;48.122;11.538;2023-11-18T09:06:15;3.53;;;1.90;;
47519;SDS011;33252;48.122;11.538;2023-11-18T09:08:44;2.90;;;1.88;;
47519;SDS011;33252;48.122;11.538;2023-11-18T09:11:12;3.95;;;2.20;;
47519;SDS011;33252;48.122;11.538;2023-11-18T09:13:45;2.67;;;2.08;;
47519;SDS011;33252;48.122;11.538;2023-11-18T09:16:14;2.05;;;1.35;;
47519;SDS011;33252;48.122;11.538;2023-11-18T09:18:42;2.90;;;2.00;;
47519;SDS011;33252;48.122;11.538;2023-11-18T09:21:12;7.85;;;2.25;;
47519;SDS011;33252;48.122;11.538;2023-11-18T09:23:44;4.25;;;2.53;;
47519;SDS011;33252;48.122;11.538;2023-11-18T09:26:12;3.72;;;2.47;;
47519;SDS011;33252;48.122;11.538;2023-11-18T09:28:39;5.13;;;4.05;;
47519;SDS011;33252;48.122;11.538;2023-11-18T09:31:05;4.75;;;2.13;;
47519;SDS011;33252;48.122;11.538;2023-11-18T09:33:36;3.05;;;1.55;;
47519;SDS011;33252;48.122;11.538;2023-11-18T09:36:03;5.05;;;2.05;;
47519;SDS011;33252;48.122;11.538;2023-11-18T09:38:33;2.88;;;1.77;;
47519;SDS011;33252;48.122;11.538;2023-11-18T09:41:05;3.50;;;2.30;;
47519;SDS011;33252;48.122;11.538;2023-11-18T09:43:32;2.63;;;1.73;;
47519;SDS011;33252;48.122;11.538;2023-11-18T09:46:07;3.00;;;1.50;;
47519;SDS011;33252;48.122;11.538;2023-11-18T09:48:46;2.42;;;1.58;;
47519;SDS011;33252;48.122;11.538;2023-11-18T09:51:26;2.63;;;1.85;;
47519;SDS011;33252;48.122;11.538;2023-11-18T09:53:59;3.50;;;1.80;;
47519;SDS011;33252;48.122;11.538;2023-11-18T09:56:41;2.38;;;1.40;;
47519;SDS011;33252;48.122;11.538;2023-11-18T09:59:35;2.15;;;1.50;;
47519;SDS011;33252;48.122;11.538;2023-11-18T10:02:19;1.88;;;1.27;;
47519;SDS011;33252;48.122;11.538;2023-11-18T10:04:49;2.38;;;1.33;;
47519;SDS011;33252;48.122;11.538;2023-11-18T10:07:19;2.47;;;1.42;;
47519;SDS011;33252;48.122;11.538;2023-11-18T10:09:45;1.63;;;1.17;;
47519;SDS011;33252;48.122;11.538;2023-11-18T10:12:12;3.50;;;1.85;;
47519;SDS011;33252;48.122;11.538;2023-11-18T10:14:42;2.92;;;1.42;;
47519;SDS011;33252;48.122;11.538;2023-11-18T10:17:10;2.28;;;1.27;;
47519;SDS011;33252;48.122;11.538;2023-11-18T10:19:52;2.78;;;1.30;;
47519;SDS011;33252;48.122;11.538;2023-11-18T10:22:22;1.57;;;1.00;;
47519;SDS011;33252;48.122;11.538;2023-11-18T10:24:52;2.15;;;1.02;;
47519;SDS011;33252;48.122;11.538;2023-11-18T10:27:25;4.18;;;1.30;;
47519;SDS011;33252;48.122;11.538;2023-11-18T10:32:21;2.08;;;1.02;;
47519;SDS011;33252;48.122;11.538;2023-11-18T10:34:50;1.67;;;0.98;;
47519;SDS011;33252;48.122;11.538;2023-11-18T10:37:16;2.80;;;1.25;;
47519;SDS011;33252;48.122;11.538;2023-11-18T10:39:42;4.05;;;1.33;;
47519;SDS011;33252;48.122;11.538;2023-11-18T10:42:13;2.30;;;1.00;;
47519;SDS011;33252;48.122;11.538;2023-11-18T10:44:40;1.58;;;0.98;;
47519;SDS011;33252;48.122;11.538;2023-11-18T10:47:20;1.35;;;1.00;;
47519;SDS011;33252;48.122;11.538;2023-11-18T10:49:46;3.65;;;1.85;;
47519;SDS011;33252;48.122;11.538;2023-11-18T10:52:16;2.03;;;1.30;;
47519;SDS011;33252;48.122;11.538;2023-11-18T10:54:52;3.58;;;1.08;;
47519;SDS011;33252;48.122;11.538;2023-11-18T10:57:19;2.97;;;1.30;;
47519;SDS011;33252;48.122;11.538;2023-11-18T11:00:02;2.22;;;0.90;;
47519;SDS011;33252;48.122;11.538;2023-11-18T11:02:32;1.45;;;0.80;;
47519;SDS011;33252;48.122;11.538;2023-11-18T11:05:00;3.58;;;0.95;;
47519;SDS011;33252;48.122;11.538;2023-11-18T11:07:25;1.48;;;0.88;;
47519;SDS011;33252;48.122;11.538;2023-11-18T11:09:51;1.17;;;0.68;;
47519;SDS011;33252;48.122;11.538;2023-11-18T11:12:21;0.93;;;0.90;;
47519;SDS011;33252;48.122;11.538;2023-11-18T11:15:00;2.15;;;0.77;;
47519;SDS011;33252;48.122;11.538;2023-11-18T11:17:32;1.58;;;0.55;;
47519;SDS011;33252;48.122;11.538;2023-11-18T11:25:19;2.05;;;0.60;;
47519;SDS011;33252;48.122;11.538;2023-11-18T11:30:22;1.15;;;0.77;;
47519;SDS011;33252;48.122;11.538;2023-11-18T11:35:55;1.95;;;0.70;;
47519;SDS011;33252;48.122;11.538;2023-11-18T11:38:24;2.17;;;0.70;;
47519;SDS011;33252;48.122;11.538;2023-11-18T11:40:52;1.30;;;0.55;;
47519;SDS011;33252;48.122;11.538;2023-11-18T11:43:20;1.10;;;0.50;;
47519;SDS011;33252;48.122;11.538;2023-11-18T11:45:50;1.45;;;0.70;;
47519;SDS011;33252;48.122;11.538;2023-11-18T11:48:20;2.05;;;0.98;;
47519;SDS011;33252;48.122;11.538;2023-11-18T11:53:40;2.95;;;0.60;;
47519;SDS011;33252;48.122;11.538;2023-11-18T11:56:10;2.92;;;0.50;;
47519;SDS011;33252;48.122;11.538;2023-11-18T11:58:39;1.50;;;0.93;;
47519;SDS011;33252;48.122;11.538;2023-11-18T12:01:28;2.80;;;0.70;;
47519;SDS011;33252;48.122;11.538;2023-11-18T12:04:07;0.90;;;0.60;;
47519;SDS011;33252;48.122;11.538;2023-11-18T12:09:06;1.00;;;0.60;;
47519;SDS011;33252;48.122;11.538;2023-11-18T12:11:37;2.85;;;0.80;;
47519;SDS011;33252;48.122;11.538;2023-11-18T12:14:11;1.85;;;0.60;;
47519;SDS011;33252;48.122;11.538;2023-11-18T12:17:04;1.25;;;0.75;;
47519;SDS011;33252;48.122;11.538;2023-11-18T12:19:46;1.65;;;0.50;;
47519;SDS011;33252;48.122;11.538;2023-11-18T12:22:19;1.65;;;0.80;;
47519;SDS011;33252;48.122;11.538;2023-11-18T12:27:40;1.75;;;0.88;;
47519;SDS011;33252;48.122;11.538;2023-11-18T12:38:31;1.20;;;0.73;;
47519;SDS011;33252;48.122;11.538;2023-11-18T12:41:38;2.08;;;0.88;;
47519;SDS011;33252;48.122;11.538;2023-11-18T12:47:03;1.17;;;0.70;;
47519;SDS011;33252;48.122;11.538;2023-11-18T12:49:37;1.40;;;0.95;;
47519;SDS011;33252;48.122;11.538;2023-11-18T12:52:06;3.22;;;0.88;;
47519;SDS011;33252;48.122;11.538;2023-11-18T12:54:33;0.75;;;0.60;;
47519;SDS011;33252;48.122;11.538;2023-11-18T12:57:02;1.50;;;0.65;;
47519;SDS011;33252;48.122;11.538;2023-11-18T12:59:31;2.05;;;0.68;;
47519;SDS011;33252;48.122;11.538;2023-11-18T13:02:01;2.25;;;0.70;;
47519;SDS011;33252;48.122;11.538;2023-11-18T13:04:30;2.55;;;0.50;;
47519;SDS011;33252;48.122;11.538;2023-11-18T13:06:57;1.73;;;0.55;;
47519;SDS011;33252;48.122;11.538;2023-11-18T13:09:24;1.70;;;0.73;;
47519;SDS011;33252;48.122;11.538;2023-11-18T13:11:52;1.95;;;0.60;;
47519;SDS011;33252;48.122;11.538;2023-11-18T13:14:21;1.17;;;0.63;;
47519;SDS011;33252;48.122;11.538;2023-11-18T13:16:51;1.05;;;0.50;;
47519;SDS011;33252;48.122;11.538;2023-11-18T13:19:24;2.28;;;0.85;;
47519;SDS011;33252;48.122;11.538;2023-11-18T13:21:56;3.20;;;0.57;;
47519;SDS011;33252;48.122;11.538;2023-11-18T13:24:24;2.10;;;0.70;;
47519;SDS011;33252;48.122;11.538;2023-11-18T13:26:56;2.17;;;0.68;;
47519;SDS011;33252;48.122;11.538;2023-11-18T13:29:28;2.92;;;0.90;;
47519;SDS011;33252;48.122;11.538;2023-11-18T13:31:54;1.95;;;0.60;;
47519;SDS011;33252;48.122;11.538;2023-11-18T13:34:22;3.08;;;0.55;;
47519;SDS011;33252;48.122;11.538;2023-11-18T13:36:48;1.60;;;0.90;;
47519;SDS011;33252;48.122;11.538;2023-11-18T13:39:18;1.30;;;0.70;;
47519;SDS011;33252;48.122;11.538;2023-11-18T13:41:44;3.72;;;1.05;;
47519;SDS011;33252;48.122;11.538;2023-11-18T13:44:35;1.50;;;0.70;;
47519;SDS011;33252;48.122;11.538;2023-11-18T13:47:02;1.38;;;0.60;;
47519;SDS011;33252;48.122;11.538;2023-11-18T13:49:30;1.63;;;0.70;;
47519;SDS011;33252;48.122;11.538;2023-11-18T13:51:57;1.90;;;0.73;;
47519;SDS011;33252;48.122;11.538;2023-11-18T13:54:23;1.40;;;0.73;;
47519;SDS011;33252;48.122;11.538;2023-11-18T13:56:50;1.13;;;0.80;;
47519;SDS011;33252;48.122;11.538;2023-11-18T13:59:16;1.52;;;0.50;;
47519;SDS011;33252;48.122;11.538;2023-11-18T14:01:42;2.90;;;0.60;;
47519;SDS011;33252;48.122;11.538;2023-11-18T14:04:08;4.30;;;1.50;;
47519;SDS011;33252;48.122;11.538;2023-11-18T14:06:35;2.15;;;0.70;;
47519;SDS011;33252;48.122;11.538;2023-11-18T14:09:02;1.75;;;0.77;;
47519;SDS011;33252;48.122;11.538;2023-11-18T14:11:29;1.30;;;0.80;;
47519;SDS011;33252;48.122;11.538;2023-11-18T14:13:55;1.77;;;0.70;;
47519;SDS011;33252;48.122;11.538;2023-11-18T14:16:20;1.85;;;1.00;;
47519;SDS011;33252;48.122;11.538;2023-11-18T14:18:48;1.63;;;0.60;;
47519;SDS011;33252;48.122;11.538;2023-11-18T14:21:14;0.80;;;0.70;;
47519;SDS011;33252;48.122;11.538;2023-11-18T14:23:40;1.80;;;0.82;;
47519;SDS011;33252;48.122;11.538;2023-11-18T14:26:06;2.53;;;0.75;;
47519;SDS011;33252;48.122;11.538;2023-11-18T14:28:35;1.08;;;0.60;;
47519;SDS011;33252;48.122;11.538;2023-11-18T14:31:01;2.13;;;0.60;;
47519;SDS011;33252;48.122;11.538;2023-11-18T14:33:32;1.23;;;0.70;;
47519;SDS011;33252;48.122;11.538;2023-11-18T14:35:58;3.17;;;1.13;;
47519;SDS011;33252;48.122;11.538;2023-11-18T14:38:26;1.50;;;0.85;;
47519;SDS011;33252;48.122;11.538;2023-11-18T14:40:51;1.63;;;0.52;;
47519;SDS011;33252;48.122;11.538;2023-11-18T14:43:18;2.05;;;0.68;;
47519;SDS011;33252;48.122;11.538;2023-11-18T14:45:44;0.85;;;0.60;;
47519;SDS011;33252;48.122;11.538;2023-11-18T14:48:09;1.65;;;0.93;;
47519;SDS011;33252;48.122;11.538;2023-11-18T14:50:35;3.35;;;0.85;;
47519;SDS011;33252;48.122;11.538;2023-11-18T14:53:01;1.23;;;0.73;;
47519;SDS011;33252;48.122;11.538;2023-11-18T14:55:28;2.90;;;1.00;;
47519;SDS011;33252;48.122;11.538;2023-11-18T14:57:55;3.03;;;1.02;;
47519;SDS011;33252;48.122;11.538;2023-11-18T15:00:21;2.05;;;0.80;;
47519;SDS011;33252;48.122;11.538;2023-11-18T15:02:51;1.23;;;0.75;;
47519;SDS011;33252;48.122;11.538;2023-11-18T15:05:19;2.40;;;0.60;;
47519;SDS011;33252;48.122;11.538;2023-11-18T15:07:46;1.17;;;0.55;;
47519;SDS011;33252;48.122;11.538;2023-11-18T15:10:19;2.35;;;0.80;;
47519;SDS011;33252;48.122;11.538;2023-11-18T15:12:49;2.33;;;1.17;;
47519;SDS011;33252;48.122;11.538;2023-11-18T15:15:18;1.40;;;0.90;;